createdAt,value
2023-06-19T00:01:11.315Z,18.37
2023-06-19T00:03:38.523Z,18.29
2023-06-19T00:06:06.958Z,18.32
2023-06-19T00:08:34.300Z,18.41
2023-06-19T00:11:01.430Z,18.41
2023-06-19T00:13:28.670Z,18.07
2023-06-19T00:15:56.676Z,18.05
2023-06-19T00:18:23.891Z,17.96
2023-06-19T00:20:51.584Z,18.23
2023-06-19T00:23:18.854Z,18.10
2023-06-19T00:25:46.066Z,18.17
2023-06-19T00:28:15.063Z,18.10
2023-06-19T00:30:43.244Z,18.16
2023-06-19T00:33:10.679Z,18.22
2023-06-19T00:35:38.200Z,18.13
2023-06-19T00:38:06.893Z,18.19
2023-06-19T00:40:35.394Z,18.07
2023-06-19T00:43:03.923Z,18.05
2023-06-19T00:45:31.259Z,18.12
2023-06-19T00:48:00.716Z,18.07
2023-06-19T00:50:31.140Z,18.10
2023-06-19T00:53:00.016Z,18.06
2023-06-19T00:55:33.586Z,18.10
2023-06-19T00:58:01.759Z,18.06
2023-06-19T01:00:28.981Z,18.14
2023-06-19T01:02:58.636Z,17.88
2023-06-19T01:05:26.467Z,17.95
2023-06-19T01:08:03.602Z,17.82
2023-06-19T01:10:37.762Z,18.00
2023-06-19T01:13:24.018Z,17.89
2023-06-19T01:15:51.675Z,18.03
2023-06-19T01:18:19.016Z,18.00
2023-06-19T01:20:46.606Z,18.02
2023-06-19T01:23:14.060Z,17.86
2023-06-19T01:25:41.337Z,17.58
2023-06-19T01:28:12.875Z,17.77
2023-06-19T01:30:42.231Z,17.85
2023-06-19T01:33:29.806Z,17.78
2023-06-19T01:35:58.785Z,17.86
2023-06-19T01:38:30.030Z,17.77
2023-06-19T01:40:58.955Z,17.81
2023-06-19T01:43:27.397Z,17.78
2023-06-19T01:45:54.783Z,17.67
2023-06-19T01:48:22.141Z,17.77
2023-06-19T01:50:50.840Z,17.75
2023-06-19T01:53:18.148Z,17.61
2023-06-19T01:55:47.348Z,17.64
2023-06-19T01:58:14.664Z,17.72
2023-06-19T02:00:41.933Z,17.61
2023-06-19T02:03:09.275Z,17.44
2023-06-19T02:05:40.645Z,17.34
2023-06-19T02:08:08.141Z,17.52
2023-06-19T02:10:37.737Z,17.37
2023-06-19T02:13:05.092Z,17.30
2023-06-19T02:15:32.282Z,17.30
2023-06-19T02:18:01.246Z,17.41
2023-06-19T02:20:29.263Z,17.44
2023-06-19T02:22:59.128Z,17.31
2023-06-19T02:25:26.424Z,17.26
2023-06-19T02:27:53.720Z,17.23
2023-06-19T02:30:22.078Z,17.03
2023-06-19T02:32:50.360Z,17.12
2023-06-19T02:35:18.393Z,17.06
2023-06-19T02:37:47.607Z,17.06
2023-06-19T02:40:15.485Z,17.10
2023-06-19T02:42:43.775Z,17.27
2023-06-19T02:45:11.101Z,17.28
2023-06-19T02:47:38.431Z,17.23
2023-06-19T02:50:06.627Z,17.40
2023-06-19T02:52:33.859Z,17.41
2023-06-19T02:55:01.133Z,17.47
2023-06-19T02:57:28.627Z,17.57
2023-06-19T02:59:55.860Z,17.58
2023-06-19T03:02:23.138Z,17.59
2023-06-19T03:04:51.312Z,17.51
2023-06-19T03:07:18.531Z,17.48
2023-06-19T03:09:45.807Z,17.61
2023-06-19T03:12:14.198Z,17.57
2023-06-19T03:14:41.928Z,17.45
2023-06-19T03:17:09.489Z,17.52
2023-06-19T03:19:36.865Z,17.64
2023-06-19T03:22:05.394Z,17.48
2023-06-19T03:24:33.315Z,17.57
2023-06-19T03:27:14.090Z,17.58
2023-06-19T03:29:41.342Z,17.40
2023-06-19T03:32:10.494Z,17.41
2023-06-19T03:34:37.858Z,17.35
2023-06-19T03:37:08.654Z,17.54
2023-06-19T03:39:36.808Z,17.57
2023-06-19T03:42:08.275Z,17.52
2023-06-19T03:44:35.935Z,17.38
2023-06-19T03:47:03.254Z,17.40
2023-06-19T03:49:30.988Z,17.50
2023-06-19T03:51:58.191Z,17.44
2023-06-19T03:54:27.232Z,17.21
2023-06-19T03:56:54.477Z,17.41
2023-06-19T03:59:21.837Z,17.45
2023-06-19T04:01:49.084Z,17.45
2023-06-19T04:04:17.979Z,17.40
2023-06-19T04:06:45.227Z,17.51
2023-06-19T04:09:13.840Z,17.27
2023-06-19T04:11:41.036Z,17.50
2023-06-19T04:14:08.264Z,17.69
2023-06-19T04:16:37.189Z,17.89
2023-06-19T04:19:04.500Z,18.10
2023-06-19T04:21:31.710Z,18.16
2023-06-19T04:23:59.091Z,18.25
2023-06-19T04:26:26.452Z,18.41
2023-06-19T04:28:54.591Z,18.63
2023-06-19T04:31:22.549Z,18.63
2023-06-19T04:33:49.863Z,18.89
2023-06-19T04:36:17.004Z,19.16
2023-06-19T04:38:46.402Z,19.37
2023-06-19T04:41:14.082Z,20.28
2023-06-19T04:43:42.740Z,21.12
2023-06-19T04:46:10.004Z,21.18
2023-06-19T04:48:37.901Z,22.18
2023-06-19T04:51:05.302Z,22.86
2023-06-19T04:53:32.680Z,23.54
2023-06-19T04:56:01.538Z,22.95
2023-06-19T04:58:29.926Z,23.33
2023-06-19T05:00:57.123Z,23.84
2023-06-19T05:03:24.378Z,23.46
2023-06-19T05:05:51.912Z,24.60
2023-06-19T05:08:19.159Z,24.92
2023-06-19T05:10:46.758Z,25.30
2023-06-19T05:13:14.044Z,25.47
2023-06-19T05:15:41.246Z,25.73
2023-06-19T05:18:08.772Z,26.22
2023-06-19T05:20:36.013Z,25.77
2023-06-19T05:23:03.205Z,25.08
2023-06-19T05:25:30.510Z,26.04
2023-06-19T05:27:57.710Z,26.36
2023-06-19T05:30:25.120Z,26.76
2023-06-19T05:32:52.725Z,26.93
2023-06-19T05:35:20.134Z,26.53
2023-06-19T05:37:47.383Z,26.72
2023-06-19T05:40:14.992Z,26.69
2023-06-19T05:42:42.197Z,25.90
2023-06-19T05:45:09.722Z,26.39
2023-06-19T05:47:37.132Z,27.44
2023-06-19T05:50:04.585Z,27.95
2023-06-19T05:52:31.815Z,28.04
2023-06-19T05:54:59.657Z,28.72
2023-06-19T05:57:27.061Z,29.02
2023-06-19T05:59:54.284Z,28.96
2023-06-19T06:02:21.710Z,28.61
2023-06-19T06:04:49.229Z,28.72
2023-06-19T06:07:16.738Z,29.36
2023-06-19T06:09:44.111Z,29.37
2023-06-19T06:12:11.535Z,30.32
2023-06-19T06:14:38.800Z,30.49
2023-06-19T06:17:07.314Z,30.77
2023-06-19T06:19:34.629Z,31.11
2023-06-19T06:22:01.941Z,31.69
2023-06-19T06:24:29.217Z,31.77
2023-06-19T06:26:56.866Z,32.57
2023-06-19T06:29:24.177Z,32.52
2023-06-19T06:31:53.646Z,31.83
2023-06-19T06:34:20.867Z,31.35
2023-06-19T06:37:00.991Z,32.21
2023-06-19T06:39:33.047Z,32.48
2023-06-19T06:42:00.266Z,32.72
2023-06-19T06:44:28.003Z,31.82
2023-06-19T06:46:56.571Z,31.76
2023-06-19T06:49:23.839Z,32.32
2023-06-19T06:51:51.069Z,32.65
2023-06-19T06:54:18.375Z,32.79
2023-06-19T06:56:48.928Z,32.52
2023-06-19T06:59:18.910Z,33.63
2023-06-19T07:01:46.089Z,33.95
2023-06-19T07:04:13.382Z,34.08
2023-06-19T07:06:40.581Z,33.84
2023-06-19T07:09:08.141Z,34.31
2023-06-19T07:11:35.400Z,32.67
2023-06-19T07:14:03.828Z,32.86
2023-06-19T07:16:31.095Z,33.06
2023-06-19T07:18:58.400Z,32.85
2023-06-19T07:21:25.897Z,32.40
2023-06-19T07:23:53.445Z,33.58
2023-06-19T07:26:20.827Z,33.53
2023-06-19T07:28:48.104Z,33.53
2023-06-19T07:31:15.256Z,32.55
2023-06-19T07:33:42.534Z,33.30
2023-06-19T07:36:14.968Z,33.72
2023-06-19T07:38:43.583Z,34.60
2023-06-19T07:41:12.130Z,35.55
2023-06-19T07:43:39.717Z,36.03
2023-06-19T07:46:07.024Z,34.53
2023-06-19T07:48:34.308Z,34.83
2023-06-19T07:51:01.497Z,35.21
2023-06-19T07:53:28.889Z,35.32
2023-06-19T07:55:56.216Z,34.49
2023-06-19T07:58:23.575Z,35.63
2023-06-19T08:00:50.799Z,36.06
2023-06-19T08:03:18.218Z,36.58
2023-06-19T08:05:45.546Z,36.68
2023-06-19T08:08:14.413Z,35.60
2023-06-19T08:10:42.197Z,36.48
2023-06-19T08:13:09.482Z,36.20
2023-06-19T08:15:36.635Z,36.30
2023-06-19T08:18:03.967Z,36.41
2023-06-19T08:20:31.676Z,36.78
2023-06-19T08:22:58.907Z,36.28
2023-06-19T08:25:26.182Z,35.65
2023-06-19T08:27:54.092Z,34.98
2023-06-19T08:30:21.351Z,35.63
2023-06-19T08:32:49.378Z,36.21
2023-06-19T08:35:16.849Z,36.81
2023-06-19T08:37:44.797Z,37.03
2023-06-19T08:40:16.015Z,36.68
2023-06-19T08:42:44.581Z,36.74
2023-06-19T08:45:12.099Z,37.75
2023-06-19T08:47:41.895Z,38.09
2023-06-19T08:50:09.432Z,37.80
2023-06-19T08:52:36.685Z,37.98
2023-06-19T08:55:06.693Z,38.12
2023-06-19T08:57:35.573Z,38.01
2023-06-19T09:00:04.204Z,37.54
2023-06-19T09:02:41.870Z,36.95
2023-06-19T09:05:19.743Z,37.37
2023-06-19T09:07:56.623Z,37.51
2023-06-19T09:10:25.153Z,37.71
2023-06-19T09:13:02.955Z,37.50
2023-06-19T09:15:32.971Z,37.08
2023-06-19T09:18:12.595Z,36.67
2023-06-19T09:20:45.402Z,36.23
2023-06-19T09:23:13.608Z,35.19
2023-06-19T09:25:52.488Z,34.83
2023-06-19T09:28:27.960Z,34.56
2023-06-19T09:31:00.468Z,34.20
2023-06-19T09:33:30.679Z,33.97
2023-06-19T09:36:00.272Z,33.63
2023-06-19T09:38:32.648Z,33.47
2023-06-19T09:41:02.605Z,33.34
2023-06-19T09:43:44.358Z,33.54
2023-06-19T09:46:15.291Z,33.47
2023-06-19T09:48:44.809Z,33.37
2023-06-19T09:51:19.364Z,33.20
2023-06-19T09:53:48.113Z,33.17
2023-06-19T09:56:17.442Z,33.16
2023-06-19T09:58:45.882Z,33.05
2023-06-19T10:01:14.443Z,33.02
2023-06-19T10:03:41.996Z,32.83
2023-06-19T10:06:15.407Z,32.75
2023-06-19T10:08:44.715Z,32.79
2023-06-19T10:11:12.538Z,32.78
2023-06-19T10:13:42.626Z,32.83
2023-06-19T10:16:21.925Z,32.82
2023-06-19T10:18:49.404Z,32.47
2023-06-19T10:21:18.619Z,32.59
2023-06-19T10:23:58.819Z,32.89
2023-06-19T10:26:36.698Z,32.44
2023-06-19T10:29:15.512Z,32.79
2023-06-19T10:31:42.994Z,32.92
2023-06-19T10:34:10.254Z,32.69
2023-06-19T10:36:37.570Z,32.83
2023-06-19T10:39:05.560Z,32.74
2023-06-19T10:41:33.203Z,32.80
2023-06-19T10:44:05.705Z,32.37
2023-06-19T10:46:35.044Z,32.20
2023-06-19T10:49:05.342Z,32.21
2023-06-19T10:51:36.943Z,32.20
2023-06-19T10:54:04.452Z,32.17
2023-06-19T10:56:31.835Z,32.28
2023-06-19T10:59:04.511Z,32.28
2023-06-19T11:01:40.002Z,32.20
2023-06-19T11:04:09.072Z,31.96
2023-06-19T11:06:37.380Z,32.13
2023-06-19T11:09:09.125Z,32.14
2023-06-19T11:11:41.678Z,32.00
2023-06-19T11:14:10.043Z,31.98
2023-06-19T11:16:48.277Z,32.06
2023-06-19T11:19:20.861Z,32.07
2023-06-19T11:21:52.882Z,32.00
2023-06-19T11:24:21.900Z,31.96
2023-06-19T11:26:51.464Z,31.98
2023-06-19T11:29:21.517Z,31.84
2023-06-19T11:31:49.905Z,31.63
2023-06-19T11:34:20.930Z,31.80
2023-06-19T11:36:51.501Z,31.74
2023-06-19T11:39:20.287Z,31.74
2023-06-19T11:41:47.993Z,31.83
2023-06-19T11:44:16.166Z,31.97
2023-06-19T11:46:43.898Z,31.93
2023-06-19T11:49:22.018Z,31.69
2023-06-19T11:51:49.341Z,31.47
2023-06-19T11:54:16.796Z,31.62
2023-06-19T11:56:44.561Z,31.58
2023-06-19T11:59:11.935Z,31.49
2023-06-19T12:01:39.724Z,31.63
2023-06-19T12:04:07.518Z,31.65
2023-06-19T12:06:36.800Z,31.67
2023-06-19T12:09:05.992Z,31.58
2023-06-19T12:11:33.393Z,31.66
2023-06-19T12:14:01.422Z,31.61
2023-06-19T12:16:29.766Z,31.59
2023-06-19T12:18:57.161Z,31.58
2023-06-19T12:21:35.724Z,31.62
2023-06-19T12:24:06.117Z,31.41
2023-06-19T12:26:38.150Z,31.36
2023-06-19T12:29:06.906Z,31.31
2023-06-19T12:31:40.241Z,31.53
2023-06-19T12:36:37.954Z,31.56
2023-06-19T12:39:10.441Z,31.63
2023-06-19T12:41:37.819Z,31.52
2023-06-19T12:44:05.043Z,31.50
2023-06-19T12:46:33.492Z,31.55
2023-06-19T12:49:01.091Z,31.43
2023-06-19T12:51:28.356Z,31.41
2023-06-19T12:53:55.571Z,31.47
2023-06-19T12:56:22.913Z,31.62
2023-06-19T12:58:50.139Z,31.69
2023-06-19T13:01:17.579Z,31.59
2023-06-19T13:03:44.988Z,31.46
2023-06-19T13:06:12.305Z,31.46
2023-06-19T13:08:39.503Z,31.53
2023-06-19T13:11:06.980Z,31.58
2023-06-19T13:13:34.239Z,31.49
2023-06-19T13:16:01.614Z,31.52
2023-06-19T13:18:28.879Z,31.46
2023-06-19T13:20:56.284Z,31.35
2023-06-19T13:23:23.424Z,31.41
2023-06-19T13:25:51.119Z,31.22
2023-06-19T13:28:18.835Z,31.22
2023-06-19T13:30:46.063Z,31.08
2023-06-19T13:33:13.350Z,31.17
2023-06-19T13:35:40.605Z,31.21
2023-06-19T13:38:08.109Z,31.18
2023-06-19T13:40:35.380Z,31.21
2023-06-19T13:43:04.714Z,31.24
2023-06-19T13:45:31.910Z,31.34
2023-06-19T13:47:59.257Z,31.43
2023-06-19T13:50:26.714Z,31.39
2023-06-19T13:52:54.739Z,31.18
2023-06-19T13:55:22.069Z,31.12
2023-06-19T13:57:49.409Z,31.18
2023-06-19T14:00:17.111Z,31.14
2023-06-19T14:02:44.437Z,31.07
2023-06-19T14:05:12.329Z,30.98
2023-06-19T14:07:41.576Z,31.14
2023-06-19T14:10:09.457Z,31.15
2023-06-19T14:12:36.697Z,31.06
2023-06-19T14:15:04.096Z,31.19
2023-06-19T14:17:31.382Z,31.14
2023-06-19T14:19:58.861Z,31.14
2023-06-19T14:22:26.168Z,31.15
2023-06-19T14:25:00.372Z,31.19
2023-06-19T14:27:27.735Z,31.15
2023-06-19T14:29:58.202Z,31.28
2023-06-19T14:32:25.691Z,31.24
2023-06-19T14:34:53.066Z,31.24
2023-06-19T14:37:20.599Z,31.24
2023-06-19T14:39:47.913Z,31.18
2023-06-19T14:42:15.086Z,31.15
2023-06-19T14:44:42.431Z,31.18
2023-06-19T14:47:10.029Z,31.24
2023-06-19T14:49:37.267Z,31.27
2023-06-19T14:52:04.990Z,31.25
2023-06-19T14:54:32.293Z,31.22
2023-06-19T14:56:59.800Z,31.27
2023-06-19T14:59:27.072Z,31.14
2023-06-19T15:01:54.334Z,31.11
2023-06-19T15:04:21.557Z,31.12
2023-06-19T15:06:48.796Z,31.11
2023-06-19T15:09:16.154Z,31.02
2023-06-19T15:11:43.382Z,30.95
2023-06-19T15:14:10.692Z,31.06
2023-06-19T15:16:38.221Z,31.01
2023-06-19T15:19:05.672Z,30.99
2023-06-19T15:21:33.019Z,30.90
2023-06-19T15:24:00.486Z,30.79
2023-06-19T15:26:27.758Z,30.73
2023-06-19T15:28:55.041Z,30.80
2023-06-19T15:31:23.907Z,30.76
2023-06-19T15:33:51.568Z,30.74
2023-06-19T15:36:19.019Z,30.73
2023-06-19T15:38:46.421Z,30.66
2023-06-19T15:41:14.278Z,30.53
2023-06-19T15:43:42.847Z,30.44
2023-06-19T15:46:10.227Z,30.40
2023-06-19T15:48:37.632Z,30.39
2023-06-19T15:51:04.934Z,30.43
2023-06-19T15:53:32.135Z,30.43
2023-06-19T15:55:59.750Z,30.37
2023-06-19T15:58:26.897Z,30.23
2023-06-19T16:00:54.353Z,30.11
2023-06-19T16:03:22.239Z,30.01
2023-06-19T16:06:06.044Z,30.06
2023-06-19T16:08:35.620Z,30.05
2023-06-19T16:11:05.836Z,30.08
2023-06-19T16:13:33.679Z,30.08
2023-06-19T16:16:00.985Z,30.09
2023-06-19T16:18:28.258Z,30.01
2023-06-19T16:20:55.958Z,29.89
2023-06-19T16:23:23.221Z,29.84
2023-06-19T16:25:50.471Z,29.81
2023-06-19T16:28:18.072Z,29.73
2023-06-19T16:30:45.291Z,29.65
2023-06-19T16:33:12.990Z,29.63
2023-06-19T16:35:40.192Z,29.64
2023-06-19T16:38:07.678Z,29.63
2023-06-19T16:40:34.874Z,29.65
2023-06-19T16:43:02.102Z,29.67
2023-06-19T16:45:29.326Z,29.57
2023-06-19T16:47:56.688Z,29.51
2023-06-19T16:50:24.401Z,29.50
2023-06-19T16:52:52.044Z,29.51
2023-06-19T16:55:23.194Z,29.42
2023-06-19T16:57:51.244Z,29.34
2023-06-19T17:00:19.387Z,29.27
2023-06-19T17:02:48.040Z,29.27
2023-06-19T17:05:15.680Z,29.17
2023-06-19T17:07:42.960Z,29.08
2023-06-19T17:10:10.714Z,29.06
2023-06-19T17:12:37.982Z,29.03
2023-06-19T17:15:05.699Z,28.99
2023-06-19T17:17:36.066Z,28.91
2023-06-19T17:20:06.008Z,28.87
2023-06-19T17:22:33.243Z,28.83
2023-06-19T17:25:00.483Z,28.74
2023-06-19T17:27:27.748Z,28.72
2023-06-19T17:29:54.961Z,28.65
2023-06-19T17:32:22.177Z,28.62
2023-06-19T17:34:49.512Z,28.57
2023-06-19T17:37:16.808Z,28.52
2023-06-19T17:39:44.094Z,28.45
2023-06-19T17:42:11.306Z,28.39
2023-06-19T17:44:38.577Z,28.34
2023-06-19T17:47:05.871Z,28.30
2023-06-19T17:49:33.168Z,28.30
2023-06-19T17:52:00.360Z,28.24
2023-06-19T17:54:27.702Z,28.12
2023-06-19T17:56:54.916Z,28.16
2023-06-19T17:59:22.296Z,28.12
2023-06-19T18:01:50.958Z,28.07
2023-06-19T18:04:18.194Z,27.97
2023-06-19T18:06:45.389Z,27.97
2023-06-19T18:09:12.607Z,27.92
2023-06-19T18:11:39.852Z,27.78
2023-06-19T18:14:07.136Z,27.70
2023-06-19T18:16:36.770Z,27.63
2023-06-19T18:19:06.234Z,27.56
2023-06-19T18:21:33.559Z,27.49
2023-06-19T18:24:03.243Z,27.47
2023-06-19T18:26:32.297Z,27.39
2023-06-19T18:28:59.609Z,27.31
2023-06-19T18:31:27.287Z,27.24
2023-06-19T18:33:55.517Z,27.17
2023-06-19T18:36:23.032Z,27.07
2023-06-19T18:38:50.255Z,27.01
2023-06-19T18:41:17.511Z,26.93
2023-06-19T18:43:44.733Z,26.89
2023-06-19T18:46:12.411Z,26.80
2023-06-19T18:48:39.578Z,26.76
2023-06-19T18:51:06.860Z,26.70
2023-06-19T18:53:34.017Z,26.66
2023-06-19T18:56:01.327Z,26.60
2023-06-19T18:58:29.550Z,26.55
2023-06-19T19:00:57.340Z,26.48
2023-06-19T19:03:24.697Z,26.43
2023-06-19T19:05:52.014Z,26.36
2023-06-19T19:08:19.206Z,26.38
2023-06-19T19:10:46.448Z,26.25
2023-06-19T19:13:14.038Z,26.15
2023-06-19T19:15:41.542Z,26.11
2023-06-19T19:18:10.215Z,26.04
2023-06-19T19:20:37.540Z,25.91
2023-06-19T19:23:04.714Z,25.84
2023-06-19T19:25:33.475Z,25.78
2023-06-19T19:28:00.787Z,25.74
2023-06-19T19:30:28.555Z,25.70
2023-06-19T19:32:56.126Z,25.76
2023-06-19T19:35:23.538Z,25.60
2023-06-19T19:37:50.835Z,25.51
2023-06-19T19:40:18.415Z,25.49
2023-06-19T19:42:45.628Z,25.39
2023-06-19T19:45:12.870Z,25.32
2023-06-19T19:47:40.125Z,25.32
2023-06-19T19:50:07.922Z,25.29
2023-06-19T19:52:35.104Z,25.26
2023-06-19T19:55:02.296Z,25.29
2023-06-19T19:57:29.656Z,25.18
2023-06-19T19:59:57.124Z,25.15
2023-06-19T20:02:24.325Z,25.05
2023-06-19T20:04:53.173Z,24.91
2023-06-19T20:07:20.391Z,24.88
2023-06-19T20:09:47.604Z,24.81
2023-06-19T20:12:21.243Z,24.91
2023-06-19T20:14:49.910Z,24.78
2023-06-19T20:17:17.091Z,24.67
2023-06-19T20:19:44.308Z,24.67
2023-06-19T20:22:11.494Z,24.67
2023-06-19T20:24:39.045Z,24.36
2023-06-19T20:27:07.774Z,24.34
2023-06-19T20:29:35.058Z,24.30
2023-06-19T20:32:02.288Z,24.30
2023-06-19T20:34:29.615Z,24.29
2023-06-19T20:36:57.692Z,24.34
2023-06-19T20:39:25.107Z,24.23
2023-06-19T20:41:52.384Z,24.16
2023-06-19T20:44:19.663Z,24.10
2023-06-19T20:46:46.856Z,24.04
2023-06-19T20:49:14.246Z,24.04
2023-06-19T20:51:41.493Z,24.08
2023-06-19T20:54:08.905Z,24.08
2023-06-19T20:56:36.222Z,24.08
2023-06-19T20:59:03.590Z,24.04
2023-06-19T21:01:31.134Z,24.01
2023-06-19T21:04:02.528Z,23.96
2023-06-19T21:06:30.849Z,24.04
2023-06-19T21:09:00.445Z,23.95
2023-06-19T21:11:27.901Z,23.88
2023-06-19T21:13:55.039Z,23.92
2023-06-19T21:16:22.421Z,23.98
2023-06-19T21:18:49.626Z,23.96
2023-06-19T21:21:16.844Z,23.94
2023-06-19T21:23:44.075Z,23.81
2023-06-19T21:26:11.320Z,23.81
2023-06-19T21:28:38.558Z,23.79
2023-06-19T21:31:05.920Z,23.69
2023-06-19T21:33:33.694Z,23.69
2023-06-19T21:36:01.223Z,23.62
2023-06-19T21:38:31.930Z,23.65
2023-06-19T21:40:59.195Z,23.55
2023-06-19T21:43:27.716Z,23.55
2023-06-19T21:45:57.792Z,23.54
2023-06-19T21:48:29.635Z,23.30
2023-06-19T21:50:56.914Z,23.31
2023-06-19T21:53:24.356Z,23.20
2023-06-19T21:55:51.626Z,23.16
2023-06-19T21:58:18.892Z,23.10
2023-06-19T22:00:46.149Z,23.10
2023-06-19T22:03:13.391Z,23.06
2023-06-19T22:05:40.672Z,22.95
2023-06-19T22:08:07.918Z,22.89
2023-06-19T22:10:35.129Z,22.81
2023-06-19T22:13:02.367Z,22.85
2023-06-19T22:15:29.638Z,22.71
2023-06-19T22:17:56.898Z,22.56
2023-06-19T22:20:24.503Z,22.68
2023-06-19T22:22:51.880Z,22.62
2023-06-19T22:25:19.312Z,22.66
2023-06-19T22:27:47.388Z,22.69
2023-06-19T22:30:16.204Z,22.73
2023-06-19T22:32:43.931Z,22.66
2023-06-19T22:35:11.353Z,22.63
2023-06-19T22:37:39.125Z,22.63
2023-06-19T22:40:08.546Z,22.52
2023-06-19T22:42:39.113Z,22.52
2023-06-19T22:45:10.384Z,22.51
2023-06-19T22:47:41.615Z,22.37
2023-06-19T22:50:11.389Z,22.40
2023-06-19T22:52:39.116Z,22.40
2023-06-19T22:55:06.871Z,22.43
2023-06-19T22:57:36.306Z,22.37
2023-06-19T23:00:14.725Z,22.37
2023-06-19T23:02:43.446Z,22.41
2023-06-19T23:05:12.151Z,22.41
2023-06-19T23:07:40.389Z,22.33
2023-06-19T23:10:11.284Z,22.28
2023-06-19T23:12:38.697Z,22.13
2023-06-19T23:15:21.790Z,22.11
2023-06-19T23:17:49.130Z,21.98
2023-06-19T23:20:18.631Z,22.07
2023-06-19T23:22:48.845Z,22.08
2023-06-19T23:25:16.285Z,21.93
2023-06-19T23:27:43.633Z,21.93
2023-06-19T23:30:11.126Z,21.98
2023-06-19T23:32:38.420Z,21.98
2023-06-19T23:35:06.061Z,22.06
2023-06-19T23:37:33.376Z,22.06
2023-06-19T23:40:00.588Z,21.87
2023-06-19T23:42:27.839Z,21.92
2023-06-19T23:44:55.038Z,21.80
2023-06-19T23:47:22.352Z,21.72
2023-06-19T23:49:50.253Z,21.73
2023-06-19T23:52:23.933Z,21.82
2023-06-19T23:54:57.177Z,21.75
2023-06-19T23:57:24.336Z,21.79
2023-06-19T23:59:51.553Z,21.70
